createdAt,value
2018-09-30T00:03:00.649Z,101607.95
2018-09-30T00:06:05.980Z,101606.73
2018-09-30T00:09:10.704Z,101598.19
2018-09-30T00:12:15.053Z,101594.23
2018-09-30T00:15:19.580Z,101586.47
2018-09-30T00:18:27.920Z,101580.78
2018-09-30T00:21:32.314Z,101577.37
2018-09-30T00:24:41.987Z,101578.69
2018-09-30T00:27:46.358Z,101587.66
2018-09-30T00:30:50.887Z,101584.16
2018-09-30T00:34:00.676Z,101580.63
2018-09-30T00:37:04.979Z,101580.77
2018-09-30T00:40:09.512Z,101565.95
2018-09-30T00:43:13.815Z,101554.23
2018-09-30T00:46:18.272Z,101556.91
2018-09-30T00:49:22.673Z,101557.73
2018-09-30T00:52:27.071Z,101556.12
2018-09-30T00:55:31.408Z,101561.34
2018-09-30T00:58:35.916Z,101559.22
2018-09-30T01:01:40.251Z,101555.77
2018-09-30T01:04:44.560Z,101545.84
2018-09-30T01:07:48.881Z,101548.52
2018-09-30T01:10:53.217Z,101545.91
2018-09-30T01:13:57.520Z,101541.63
2018-09-30T01:17:01.935Z,101532.41
2018-09-30T01:20:06.204Z,101531.37
2018-09-30T01:23:10.513Z,101517.80
2018-09-30T01:26:15.100Z,101513.38
2018-09-30T01:29:19.426Z,101502.03
2018-09-30T01:32:23.796Z,101499.88
2018-09-30T01:35:28.189Z,101499.93
2018-09-30T01:38:32.621Z,101496.91
2018-09-30T01:41:37.123Z,101488.41
2018-09-30T01:44:41.631Z,101481.48
2018-09-30T01:47:46.018Z,101473.95
2018-09-30T01:50:50.648Z,101470.00
2018-09-30T01:53:55.154Z,101466.84
2018-09-30T01:56:59.472Z,101470.73
2018-09-30T02:00:03.956Z,101466.45
2018-09-30T02:03:08.403Z,101456.11
2018-09-30T02:06:12.745Z,101455.68
2018-09-30T02:09:17.050Z,101453.95
2018-09-30T02:12:21.373Z,101457.10
2018-09-30T02:15:25.785Z,101449.81
2018-09-30T02:18:30.139Z,101452.89
2018-09-30T02:21:34.564Z,101444.27
2018-09-30T02:24:39.038Z,101440.39
2018-09-30T02:27:43.297Z,101441.09
2018-09-30T02:30:47.547Z,101428.86
2018-09-30T02:33:51.837Z,101436.80
2018-09-30T02:36:56.152Z,101429.92
2018-09-30T02:40:00.481Z,101439.89
2018-09-30T02:43:04.801Z,101427.39
2018-09-30T02:46:09.333Z,101423.55
2018-09-30T02:49:13.652Z,101429.23
2018-09-30T02:52:17.952Z,101414.48
2018-09-30T02:55:22.233Z,101413.54
2018-09-30T02:58:26.509Z,101402.27
2018-09-30T03:01:30.828Z,101398.36
2018-09-30T03:04:35.165Z,101396.67
2018-09-30T03:07:44.748Z,101396.95
2018-09-30T03:10:49.013Z,101389.56
2018-09-30T03:13:53.335Z,101387.81
2018-09-30T03:16:57.680Z,101384.36
2018-09-30T03:20:01.996Z,101381.11
2018-09-30T03:23:06.258Z,101368.89
2018-09-30T03:26:10.530Z,101374.09
2018-09-30T03:29:14.792Z,101361.08
2018-09-30T03:32:19.077Z,101363.63
2018-09-30T03:35:23.389Z,101368.39
2018-09-30T03:38:27.686Z,101360.16
2018-09-30T03:41:31.954Z,101354.09
2018-09-30T03:44:36.235Z,101351.92
2018-09-30T03:47:40.728Z,101347.16
2018-09-30T03:50:45.030Z,101343.93
2018-09-30T03:53:49.354Z,101328.81
2018-09-30T03:56:53.747Z,101328.96
2018-09-30T03:59:58.039Z,101331.89
2018-09-30T04:03:02.379Z,101317.56
2018-09-30T04:06:06.732Z,101316.38
2018-09-30T04:09:11.209Z,101312.91
2018-09-30T04:12:15.571Z,101308.14
2018-09-30T04:15:19.878Z,101302.06
2018-09-30T04:18:24.184Z,101296.85
2018-09-30T04:21:28.528Z,101306.50
2018-09-30T04:24:32.826Z,101296.52
2018-09-30T04:27:37.168Z,101293.00
2018-09-30T04:30:41.472Z,101286.00
2018-09-30T04:33:45.817Z,101290.87
2018-09-30T04:36:50.082Z,101287.34
2018-09-30T04:39:54.350Z,101278.29
2018-09-30T04:42:58.696Z,101283.55
2018-09-30T04:46:02.985Z,101276.16
2018-09-30T04:49:07.532Z,101266.61
2018-09-30T04:52:11.842Z,101268.26
2018-09-30T04:55:16.248Z,101263.04
2018-09-30T04:58:20.501Z,101263.14
2018-09-30T05:01:24.817Z,101264.44
2018-09-30T05:04:29.129Z,101260.97
2018-09-30T05:07:33.392Z,101258.27
2018-09-30T05:10:37.673Z,101259.95
2018-09-30T05:13:42.016Z,101262.61
2018-09-30T05:16:46.296Z,101260.87
2018-09-30T05:19:50.628Z,101262.61
2018-09-30T05:22:55.733Z,101259.56
2018-09-30T05:26:00.102Z,101262.55
2018-09-30T05:29:04.408Z,101258.12
2018-09-30T05:32:08.945Z,101255.52
2018-09-30T05:35:13.262Z,101260.60
2018-09-30T05:38:17.600Z,101256.64
2018-09-30T05:41:22.003Z,101256.08
2018-09-30T05:44:26.316Z,101253.52
2018-09-30T05:47:30.643Z,101243.92
2018-09-30T05:50:34.976Z,101248.70
2018-09-30T05:53:39.281Z,101241.46
2018-09-30T05:56:43.641Z,101248.40
2018-09-30T05:59:47.923Z,101240.59
2018-09-30T06:02:52.182Z,101247.21
2018-09-30T06:05:56.454Z,101241.50
2018-09-30T06:09:00.817Z,101237.13
2018-09-30T06:12:05.110Z,101244.18
2018-09-30T06:15:09.388Z,101245.91
2018-09-30T06:18:13.655Z,101247.27
2018-09-30T06:21:17.916Z,101233.77
2018-09-30T06:24:22.207Z,101242.97
2018-09-30T06:27:26.536Z,101233.42
2018-09-30T06:30:30.840Z,101235.16
2018-09-30T06:33:35.164Z,101233.85
2018-09-30T06:36:39.522Z,101226.86
2018-09-30T06:39:43.773Z,101229.66
2018-09-30T06:42:48.133Z,101233.52
2018-09-30T06:45:52.456Z,101232.28
2018-09-30T06:48:56.707Z,101227.98
2018-09-30T06:52:01.148Z,101211.05
2018-09-30T06:55:05.450Z,101225.86
2018-09-30T06:58:09.737Z,101214.20
2018-09-30T07:01:14.115Z,101219.06
2018-09-30T07:04:18.317Z,101222.92
2018-09-30T07:07:22.596Z,101221.72
2018-09-30T07:10:26.922Z,101214.42
2018-09-30T07:13:31.243Z,101214.44
2018-09-30T07:16:35.571Z,101219.70
2018-09-30T07:19:39.921Z,101217.61
2018-09-30T07:22:44.237Z,101211.14
2018-09-30T07:25:48.528Z,101211.09
2018-09-30T07:28:52.841Z,101202.45
2018-09-30T07:31:57.191Z,101204.29
2018-09-30T07:35:01.509Z,101198.59
2018-09-30T07:38:05.782Z,101202.45
2018-09-30T07:41:10.034Z,101207.15
2018-09-30T07:44:14.400Z,101196.28
2018-09-30T07:47:18.694Z,101200.23
2018-09-30T07:50:23.007Z,101204.88
2018-09-30T07:53:27.344Z,101207.09
2018-09-30T07:56:31.661Z,101216.70
2018-09-30T07:59:35.983Z,101206.37
2018-09-30T08:02:40.302Z,101209.89
2018-09-30T08:05:44.654Z,101209.50
2018-09-30T08:08:49.051Z,101214.84
2018-09-30T08:11:53.378Z,101208.64
2018-09-30T08:14:57.695Z,101206.33
2018-09-30T08:18:02.006Z,101203.90
2018-09-30T08:21:06.482Z,101196.08
2018-09-30T08:24:10.816Z,101189.52
2018-09-30T08:27:15.094Z,101200.30
2018-09-30T08:30:19.399Z,101200.90
2018-09-30T08:33:23.732Z,101194.26
2018-09-30T08:36:28.059Z,101190.69
2018-09-30T08:39:32.306Z,101186.50
2018-09-30T08:42:36.687Z,101184.77
2018-09-30T08:45:40.993Z,101183.90
2018-09-30T08:48:45.312Z,101184.81
2018-09-30T08:51:49.660Z,101181.81
2018-09-30T08:54:54.050Z,101178.78
2018-09-30T08:57:58.384Z,101189.04
2018-09-30T09:01:02.751Z,101180.27
2018-09-30T09:04:07.268Z,101165.11
2018-09-30T09:07:11.672Z,101170.48
2018-09-30T09:10:15.963Z,101164.52
2018-09-30T09:13:20.267Z,101168.23
2018-09-30T09:16:24.650Z,101154.33
2018-09-30T09:19:28.941Z,101149.56
2018-09-30T09:22:33.418Z,101160.80
2018-09-30T09:25:37.852Z,101155.86
2018-09-30T09:28:42.229Z,101162.83
2018-09-30T09:31:46.620Z,101164.89
2018-09-30T09:34:50.899Z,101163.95
2018-09-30T09:37:55.181Z,101162.15
2018-09-30T09:40:59.497Z,101150.41
2018-09-30T09:44:03.813Z,101150.03
2018-09-30T09:47:08.108Z,101141.39
2018-09-30T09:50:12.430Z,101140.14
2018-09-30T09:53:16.718Z,101138.42
2018-09-30T09:56:21.185Z,101142.37
2018-09-30T09:59:25.565Z,101138.40
2018-09-30T10:02:29.811Z,101145.36
2018-09-30T10:05:34.120Z,101137.09
2018-09-30T10:08:38.432Z,101135.84
2018-09-30T10:11:42.675Z,101144.23
2018-09-30T10:14:47.004Z,101140.39
2018-09-30T10:17:51.327Z,101134.35
2018-09-30T10:20:55.676Z,101130.12
2018-09-30T10:23:59.956Z,101127.59
2018-09-30T10:27:04.251Z,101128.56
2018-09-30T10:30:08.579Z,101119.10
2018-09-30T10:33:12.819Z,101121.91
2018-09-30T10:36:17.122Z,101109.32
2018-09-30T10:39:21.654Z,101111.58
2018-09-30T10:42:25.773Z,101103.30
2018-09-30T10:45:30.098Z,101108.83
2018-09-30T10:48:34.428Z,101113.16
2018-09-30T10:51:38.730Z,101113.55
2018-09-30T10:54:43.069Z,101114.42
2018-09-30T10:57:47.400Z,101113.55
2018-09-30T11:00:52.427Z,101107.86
2018-09-30T11:03:56.704Z,101108.19
2018-09-30T11:07:01.311Z,101111.40
2018-09-30T11:10:05.718Z,101108.74
2018-09-30T11:13:09.983Z,101109.97
2018-09-30T11:16:14.303Z,101111.34
2018-09-30T11:19:18.623Z,101105.70
2018-09-30T11:22:23.011Z,101103.61
2018-09-30T11:25:27.261Z,101098.88
2018-09-30T11:28:31.620Z,101098.20
2018-09-30T11:31:35.898Z,101090.39
2018-09-30T11:34:40.253Z,101075.58
2018-09-30T11:37:44.541Z,101077.69
2018-09-30T11:40:48.898Z,101084.70
2018-09-30T11:43:53.322Z,101080.00
2018-09-30T11:46:57.613Z,101079.23
2018-09-30T11:50:01.946Z,101068.57
2018-09-30T11:53:06.233Z,101066.36
2018-09-30T11:56:11.795Z,101070.27
2018-09-30T11:59:17.473Z,101064.97
2018-09-30T12:02:21.845Z,101065.30
2018-09-30T12:05:26.112Z,101057.91
2018-09-30T12:08:30.564Z,101065.36
2018-09-30T12:11:34.880Z,101054.84
2018-09-30T12:14:39.188Z,101057.03
2018-09-30T12:17:43.472Z,101053.99
2018-09-30T12:20:48.115Z,101042.26
2018-09-30T12:23:52.417Z,101034.13
2018-09-30T12:26:56.702Z,101038.11
2018-09-30T12:30:01.013Z,101028.46
2018-09-30T12:33:05.318Z,101037.13
2018-09-30T12:36:09.630Z,101044.46
2018-09-30T12:39:13.976Z,101025.23
2018-09-30T12:42:18.378Z,101027.83
2018-09-30T12:45:22.639Z,101025.30
2018-09-30T12:48:26.931Z,101014.52
2018-09-30T12:51:31.512Z,101009.77
2018-09-30T12:54:35.824Z,101009.84
2018-09-30T12:57:40.112Z,101012.88
2018-09-30T13:00:44.413Z,101000.22
2018-09-30T13:03:48.701Z,100998.44
2018-09-30T13:06:53.060Z,101010.65
2018-09-30T13:09:57.399Z,101007.13
2018-09-30T13:13:01.710Z,101004.06
2018-09-30T13:16:06.076Z,101005.38
2018-09-30T13:19:10.444Z,101003.70
2018-09-30T13:22:14.785Z,101004.14
2018-09-30T13:25:19.123Z,101005.02
2018-09-30T13:28:23.511Z,100998.88
2018-09-30T13:31:27.835Z,101000.55
2018-09-30T13:34:32.120Z,100999.22
2018-09-30T13:37:36.460Z,101004.52
2018-09-30T13:40:40.835Z,101007.66
2018-09-30T13:43:45.094Z,101006.34
2018-09-30T13:46:49.442Z,101004.55
2018-09-30T13:49:53.742Z,100997.48
2018-09-30T13:52:58.106Z,100997.90
2018-09-30T13:56:02.443Z,100997.06
2018-09-30T13:59:06.842Z,100992.22
2018-09-30T14:02:11.172Z,100995.73
2018-09-30T14:05:15.486Z,100990.52
2018-09-30T14:08:19.788Z,100994.53
2018-09-30T14:11:24.072Z,100993.68
2018-09-30T14:14:28.445Z,100991.48
2018-09-30T14:17:32.756Z,100996.27
2018-09-30T14:20:37.043Z,100994.94
2018-09-30T14:23:41.407Z,100993.66
2018-09-30T14:26:45.882Z,100986.20
2018-09-30T14:29:50.297Z,100997.52
2018-09-30T14:32:54.709Z,100996.20
2018-09-30T14:35:59.094Z,100993.13
2018-09-30T14:39:04.777Z,100999.66
2018-09-30T14:42:09.184Z,100999.61
2018-09-30T14:45:13.519Z,100997.85
2018-09-30T14:48:17.863Z,100992.56
2018-09-30T14:51:22.240Z,100987.71
2018-09-30T14:54:26.625Z,100987.58
2018-09-30T14:57:30.979Z,100993.58
2018-09-30T15:00:35.313Z,100992.63
2018-09-30T15:03:39.621Z,100989.98
2018-09-30T15:06:43.945Z,100981.69
2018-09-30T15:09:48.309Z,100976.47
2018-09-30T15:12:52.602Z,100976.02
2018-09-30T15:15:56.884Z,100975.58
2018-09-30T15:19:01.244Z,100968.20
2018-09-30T15:22:05.585Z,100971.67
2018-09-30T15:25:09.886Z,100966.00
2018-09-30T15:28:14.207Z,100969.07
2018-09-30T15:31:18.526Z,100968.16
2018-09-30T15:34:22.792Z,100969.05
2018-09-30T15:37:27.086Z,100972.55
2018-09-30T15:40:31.366Z,100972.08
2018-09-30T15:43:35.837Z,100972.50
2018-09-30T15:46:40.107Z,100965.08
2018-09-30T15:49:44.437Z,100964.60
2018-09-30T15:52:48.717Z,100962.84
2018-09-30T15:55:53.005Z,100960.22
2018-09-30T15:58:57.300Z,100959.78
2018-09-30T16:02:01.622Z,100956.68
2018-09-30T16:05:06.234Z,100958.41
2018-09-30T16:08:10.602Z,100954.88
2018-09-30T16:11:14.884Z,100961.39
2018-09-30T16:14:19.197Z,100962.70
2018-09-30T16:17:23.578Z,100970.05
2018-09-30T16:20:27.979Z,100970.42
2018-09-30T16:23:32.313Z,100974.70
2018-09-30T16:26:36.688Z,100975.87
2018-09-30T16:29:41.064Z,100966.61
2018-09-30T16:32:45.403Z,100966.50
2018-09-30T16:35:49.761Z,100970.77
2018-09-30T16:38:54.141Z,100967.64
2018-09-30T16:41:58.479Z,100969.27
2018-09-30T16:45:02.919Z,100967.93
2018-09-30T16:48:07.274Z,100971.31
2018-09-30T16:51:11.653Z,100967.34
2018-09-30T16:54:16.035Z,100966.45
2018-09-30T16:57:20.385Z,100964.23
2018-09-30T17:00:27.844Z,100966.45
2018-09-30T17:03:32.298Z,100970.76
2018-09-30T17:06:36.594Z,100972.03
2018-09-30T17:09:41.026Z,100972.00
2018-09-30T17:12:45.379Z,100977.98
2018-09-30T17:15:49.761Z,100976.22
2018-09-30T17:18:54.160Z,100983.10
2018-09-30T17:21:58.495Z,100976.08
2018-09-30T17:25:02.845Z,100973.38
2018-09-30T17:28:07.762Z,100977.61
2018-09-30T17:31:12.260Z,100975.36
2018-09-30T17:34:16.844Z,100974.02
2018-09-30T17:37:21.318Z,100969.57
2018-09-30T17:40:25.768Z,100973.01
2018-09-30T17:43:30.254Z,100972.50
2018-09-30T17:46:34.621Z,100969.42
2018-09-30T17:49:39.203Z,100972.38
2018-09-30T17:52:43.600Z,100972.78
2018-09-30T17:55:48.363Z,100974.52
2018-09-30T17:58:52.789Z,100966.70
2018-09-30T18:01:57.548Z,100967.61
2018-09-30T18:05:01.944Z,100967.64
2018-09-30T18:08:06.554Z,100982.80
2018-09-30T18:11:11.189Z,100976.21
2018-09-30T18:14:16.273Z,100974.44
2018-09-30T18:17:23.086Z,100977.39
2018-09-30T18:20:27.922Z,100979.05
2018-09-30T18:23:32.693Z,100981.61
2018-09-30T18:26:37.443Z,100983.70
2018-09-30T18:29:42.324Z,100985.36
2018-09-30T18:32:47.146Z,100982.75
2018-09-30T18:35:51.932Z,100976.64
2018-09-30T18:38:56.697Z,100971.42
2018-09-30T18:42:01.374Z,100969.25
2018-09-30T18:45:06.263Z,100977.50
2018-09-30T18:48:11.511Z,100971.04
2018-09-30T18:51:16.230Z,100976.75
2018-09-30T18:54:20.984Z,100974.03
2018-09-30T18:57:26.717Z,100970.52
2018-09-30T19:00:32.193Z,100963.06
2018-09-30T19:03:36.999Z,100962.97
2018-09-30T19:06:41.818Z,100961.23
2018-09-30T19:09:46.609Z,100958.59
2018-09-30T19:12:51.300Z,100960.71
2018-09-30T19:15:56.065Z,100947.62
2018-09-30T19:19:00.745Z,100944.97
2018-09-30T19:22:05.530Z,100953.65
2018-09-30T19:25:10.171Z,100953.25
2018-09-30T19:28:15.032Z,100949.74
2018-09-30T19:31:20.357Z,100957.98
2018-09-30T19:34:25.259Z,100956.69
2018-09-30T19:37:30.027Z,100959.72
2018-09-30T19:40:34.852Z,100957.55
2018-09-30T19:43:39.600Z,100957.50
2018-09-30T19:46:44.232Z,100963.58
2018-09-30T19:49:48.922Z,100949.66
2018-09-30T19:52:53.562Z,100953.12
2018-09-30T19:55:58.356Z,100950.44
2018-09-30T19:59:03.062Z,100952.98
2018-09-30T20:02:08.085Z,100952.98
2018-09-30T20:05:12.625Z,100955.63
2018-09-30T20:08:17.151Z,100959.58
2018-09-30T20:11:21.449Z,100957.85
2018-09-30T20:14:25.866Z,100954.86
2018-09-30T20:17:30.234Z,100946.57
2018-09-30T20:20:34.618Z,100935.73
2018-09-30T20:23:39.003Z,100933.48
2018-09-30T20:26:43.445Z,100929.35
2018-09-30T20:29:47.836Z,100934.75
2018-09-30T20:32:52.176Z,100936.68
2018-09-30T20:35:56.474Z,100935.23
2018-09-30T20:39:00.818Z,100931.23
2018-09-30T20:42:05.158Z,100927.62
2018-09-30T20:45:09.541Z,100919.28
2018-09-30T20:48:13.893Z,100912.73
2018-09-30T20:51:18.163Z,100913.12
2018-09-30T20:54:22.666Z,100919.08
2018-09-30T20:57:27.054Z,100919.41
2018-09-30T21:00:31.490Z,100928.22
2018-09-30T21:03:35.888Z,100924.92
2018-09-30T21:06:41.598Z,100925.45
2018-09-30T21:09:46.025Z,100925.89
2018-09-30T21:12:50.402Z,100925.89
2018-09-30T21:15:54.886Z,100924.15
2018-09-30T21:18:59.263Z,100920.64
2018-09-30T21:22:03.563Z,100925.45
2018-09-30T21:25:08.024Z,100921.16
2018-09-30T21:28:12.422Z,100916.98
2018-09-30T21:31:16.710Z,100909.70
2018-09-30T21:34:21.218Z,100914.44
2018-09-30T21:37:25.857Z,100917.89
2018-09-30T21:40:30.194Z,100902.30
2018-09-30T21:43:34.540Z,100902.30
2018-09-30T21:46:39.309Z,100910.53
2018-09-30T21:49:43.691Z,100913.13
2018-09-30T21:52:48.108Z,100914.95
2018-09-30T21:55:53.312Z,100913.32
2018-09-30T21:58:58.546Z,100910.77
2018-09-30T22:02:03.641Z,100908.17
2018-09-30T22:05:08.014Z,100904.61
2018-09-30T22:08:12.695Z,100900.19
2018-09-30T22:11:17.021Z,100896.28
2018-09-30T22:14:21.349Z,100892.47
2018-09-30T22:17:25.661Z,100890.34
2018-09-30T22:20:29.999Z,100883.86
2018-09-30T22:23:34.412Z,100889.45
2018-09-30T22:26:38.808Z,100894.16
2018-09-30T22:29:43.123Z,100896.23
2018-09-30T22:32:47.617Z,100896.58
2018-09-30T22:35:51.902Z,100898.78
2018-09-30T22:38:56.190Z,100896.19
2018-09-30T22:42:00.478Z,100899.56
2018-09-30T22:45:05.106Z,100897.38
2018-09-30T22:48:09.501Z,100902.05
2018-09-30T22:51:13.843Z,100897.97
2018-09-30T22:54:18.119Z,100897.33
2018-09-30T22:57:22.482Z,100894.89
2018-09-30T23:00:26.918Z,100895.94
2018-09-30T23:03:31.322Z,100894.73
2018-09-30T23:06:35.653Z,100900.05
2018-09-30T23:09:40.029Z,100898.03
2018-09-30T23:12:44.362Z,100900.74
2018-09-30T23:15:48.640Z,100892.13
2018-09-30T23:18:53.139Z,100892.08
2018-09-30T23:21:57.673Z,100885.80
2018-09-30T23:25:03.154Z,100891.97
2018-09-30T23:28:07.457Z,100885.99
2018-09-30T23:31:11.816Z,100888.73
2018-09-30T23:34:16.132Z,100893.65
2018-09-30T23:37:20.482Z,100892.13
2018-09-30T23:40:24.895Z,100897.19
2018-09-30T23:43:29.150Z,100895.03
2018-09-30T23:46:33.676Z,100889.41
2018-09-30T23:49:37.944Z,100894.70
2018-09-30T23:52:42.267Z,100887.97
2018-09-30T23:55:46.576Z,100890.80
2018-09-30T23:58:51.008Z,100893.99
